createdAt,value
2022-12-25T00:04:00.927Z,98971.03
2022-12-25T00:06:31.295Z,98988.03
2022-12-25T00:08:58.343Z,98988.44
2022-12-25T00:11:34.266Z,98991.13
2022-12-25T00:14:08.898Z,99010.41
2022-12-25T00:19:16.669Z,99017.81
2022-12-25T00:25:44.787Z,98996.47
2022-12-25T00:29:01.101Z,99025.78
2022-12-25T00:31:30.675Z,99025.16
2022-12-25T00:33:58.341Z,99024.56
2022-12-25T00:36:28.493Z,99005.25
2022-12-25T00:38:57.811Z,99030.50
2022-12-25T00:44:44.958Z,99015.50
2022-12-25T00:50:07.355Z,99043.78
2022-12-25T00:52:46.393Z,99014.66
2022-12-25T00:55:16.537Z,99037.00
2022-12-25T00:57:46.731Z,99059.56
2022-12-25T01:00:22.970Z,99045.22
2022-12-25T01:02:57.747Z,99083.34
2022-12-25T01:05:36.914Z,99047.19
2022-12-25T01:08:05.104Z,99089.47
2022-12-25T01:10:35.212Z,99064.00
2022-12-25T01:13:05.845Z,99064.41
2022-12-25T01:15:41.813Z,99051.47
2022-12-25T01:18:12.845Z,99064.56
2022-12-25T01:20:51.204Z,99057.19
2022-12-25T01:23:18.395Z,99089.59
2022-12-25T01:25:48.327Z,99104.13
2022-12-25T01:28:28.362Z,99067.41
2022-12-25T01:30:59.510Z,99064.69
2022-12-25T01:33:31.218Z,99108.38
2022-12-25T01:35:58.810Z,99068.13
2022-12-25T01:39:05.091Z,99109.16
2022-12-25T01:41:35.083Z,99106.94
2022-12-25T01:44:23.064Z,99105.66
2022-12-25T01:46:53.879Z,99105.28
2022-12-25T01:49:27.739Z,99137.84
2022-12-25T01:52:01.158Z,99129.25
2022-12-25T01:55:12.443Z,99135.81
2022-12-25T01:57:44.147Z,99149.09
2022-12-25T02:00:16.913Z,99143.47
2022-12-25T02:02:45.959Z,99125.97
2022-12-25T02:05:38.145Z,99143.75
2022-12-25T02:08:13.199Z,99142.94
2022-12-25T02:10:51.278Z,99135.59
2022-12-25T02:16:34.211Z,99157.81
2022-12-25T02:19:34.917Z,99138.34
2022-12-25T02:22:34.780Z,99169.56
2022-12-25T02:25:36.015Z,99167.94
2022-12-25T02:28:09.426Z,99187.78
2022-12-25T02:30:48.619Z,99172.72
2022-12-25T02:34:01.280Z,99208.38
2022-12-25T02:36:54.087Z,99162.78
2022-12-25T02:39:53.803Z,99165.72
2022-12-25T02:43:13.845Z,99223.47
2022-12-25T02:46:44.431Z,99193.84
2022-12-25T02:49:42.465Z,99154.84
2022-12-25T02:53:00.819Z,99207.50
2022-12-25T02:59:13.741Z,99207.44
2022-12-25T03:02:10.573Z,99212.44
2022-12-25T03:05:26.686Z,99222.69
2022-12-25T03:08:05.725Z,99215.72
2022-12-25T03:13:56.278Z,99219.22
2022-12-25T03:16:50.993Z,99187.97
2022-12-25T03:19:51.656Z,99204.81
2022-12-25T03:22:52.351Z,99231.53
2022-12-25T03:25:45.722Z,99247.75
2022-12-25T03:28:19.004Z,99231.03
2022-12-25T03:31:23.099Z,99245.22
2022-12-25T03:34:21.901Z,99242.00
2022-12-25T03:37:27.450Z,99245.59
2022-12-25T03:40:40.003Z,99247.63
2022-12-25T03:43:55.724Z,99253.31
2022-12-25T03:47:06.581Z,99249.13
2022-12-25T03:50:13.787Z,99283.47
2022-12-25T03:53:09.990Z,99242.16
2022-12-25T03:56:03.108Z,99268.09
2022-12-25T04:01:56.770Z,99250.97
2022-12-25T04:04:45.942Z,99284.03
2022-12-25T04:07:37.122Z,99283.66
2022-12-25T04:10:27.678Z,99288.88
2022-12-25T04:13:19.121Z,99280.16
2022-12-25T04:16:04.748Z,99281.91
2022-12-25T04:18:50.432Z,99295.56
2022-12-25T04:21:35.716Z,99285.94
2022-12-25T04:24:21.326Z,99307.00
2022-12-25T04:27:06.860Z,99297.69
2022-12-25T04:29:52.564Z,99306.47
2022-12-25T04:32:38.257Z,99322.31
2022-12-25T04:35:23.939Z,99310.50
2022-12-25T04:37:51.037Z,99310.13
2022-12-25T04:40:19.312Z,99306.47
2022-12-25T04:42:46.538Z,99297.66
2022-12-25T04:45:13.592Z,99305.00
2022-12-25T04:47:40.596Z,99313.88
2022-12-25T04:50:17.555Z,99318.44
2022-12-25T04:52:44.648Z,99322.41
2022-12-25T04:55:12.105Z,99316.09
2022-12-25T04:57:39.501Z,99324.31
2022-12-25T05:00:07.680Z,99331.28
2022-12-25T05:02:37.684Z,99337.63
2022-12-25T05:05:05.012Z,99354.75
2022-12-25T05:07:36.233Z,99358.50
2022-12-25T05:10:06.953Z,99348.97
2022-12-25T05:12:34.100Z,99352.81
2022-12-25T05:15:01.081Z,99375.47
2022-12-25T05:17:30.171Z,99376.38
2022-12-25T05:19:57.925Z,99377.38
2022-12-25T05:22:24.886Z,99369.75
2022-12-25T05:24:51.774Z,99383.22
2022-12-25T05:27:18.750Z,99378.72
2022-12-25T05:29:45.682Z,99379.09
2022-12-25T05:32:12.834Z,99385.59
2022-12-25T05:34:39.869Z,99397.88
2022-12-25T05:37:06.885Z,99403.91
2022-12-25T05:39:34.073Z,99383.50
2022-12-25T05:42:01.238Z,99399.88
2022-12-25T05:44:28.276Z,99418.91
2022-12-25T05:46:55.277Z,99423.59
2022-12-25T05:49:22.255Z,99421.47
2022-12-25T05:51:49.179Z,99425.47
2022-12-25T05:54:16.954Z,99434.44
2022-12-25T05:56:43.874Z,99439.56
2022-12-25T05:59:10.826Z,99432.59
2022-12-25T06:01:37.977Z,99440.75
2022-12-25T06:04:10.313Z,99439.56
2022-12-25T06:06:39.490Z,99446.53
2022-12-25T06:09:06.772Z,99454.84
2022-12-25T06:11:33.656Z,99436.63
2022-12-25T06:14:00.647Z,99460.16
2022-12-25T06:16:30.509Z,99458.97
2022-12-25T06:19:01.021Z,99466.00
2022-12-25T06:21:28.072Z,99448.41
2022-12-25T06:23:56.600Z,99455.75
2022-12-25T06:26:23.554Z,99456.91
2022-12-25T06:28:50.684Z,99453.91
2022-12-25T06:31:20.531Z,99463.16
2022-12-25T06:33:50.959Z,99461.34
2022-12-25T06:36:21.827Z,99465.09
2022-12-25T06:38:52.496Z,99468.09
2022-12-25T06:41:22.437Z,99473.03
2022-12-25T06:43:52.437Z,99480.28
2022-12-25T06:46:23.955Z,99476.91
2022-12-25T06:48:51.498Z,99484.25
2022-12-25T06:51:21.844Z,99482.41
2022-12-25T06:53:50.741Z,99485.59
2022-12-25T06:56:20.467Z,99490.44
2022-12-25T06:58:56.268Z,99492.34
2022-12-25T07:01:26.970Z,99493.31
2022-12-25T07:04:00.233Z,99486.84
2022-12-25T07:06:27.633Z,99494.09
2022-12-25T07:08:59.531Z,99486.31
2022-12-25T07:11:43.324Z,99540.94
2022-12-25T07:14:32.671Z,99499.88
2022-12-25T07:17:12.020Z,99497.88
2022-12-25T07:19:44.973Z,99502.94
2022-12-25T07:22:14.084Z,99510.63
2022-12-25T07:24:41.845Z,99505.59
2022-12-25T07:27:09.143Z,99504.19
2022-12-25T07:29:36.205Z,99517.81
2022-12-25T07:32:03.576Z,99511.25
2022-12-25T07:34:31.054Z,99519.53
2022-12-25T07:36:58.609Z,99541.28
2022-12-25T07:39:26.162Z,99535.31
2022-12-25T07:41:53.514Z,99529.34
2022-12-25T07:44:21.945Z,99539.44
2022-12-25T07:46:49.358Z,99534.66
2022-12-25T07:49:16.917Z,99543.19
2022-12-25T07:51:44.489Z,99551.94
2022-12-25T07:54:12.427Z,99572.00
2022-12-25T07:56:39.721Z,99569.00
2022-12-25T07:59:06.803Z,99558.53
2022-12-25T08:01:37.397Z,99550.91
2022-12-25T08:04:08.263Z,99559.84
2022-12-25T08:06:35.784Z,99562.50
2022-12-25T08:09:08.896Z,99560.84
2022-12-25T08:11:36.739Z,99579.63
2022-12-25T08:14:08.447Z,99578.31
2022-12-25T08:16:35.693Z,99591.97
2022-12-25T08:19:03.063Z,99594.97
2022-12-25T08:21:30.336Z,99593.66
2022-12-25T08:23:57.387Z,99585.75
2022-12-25T08:26:24.871Z,99586.59
2022-12-25T08:28:52.191Z,99600.22
2022-12-25T08:31:24.782Z,99605.81
2022-12-25T08:33:54.462Z,99600.16
2022-12-25T08:36:25.004Z,99605.00
2022-12-25T08:39:00.288Z,99601.28
2022-12-25T08:41:56.088Z,99607.72
2022-12-25T08:44:23.635Z,99605.59
2022-12-25T08:46:50.618Z,99602.47
2022-12-25T08:49:17.618Z,99596.50
2022-12-25T08:51:45.031Z,99599.63
2022-12-25T08:54:11.992Z,99597.44
2022-12-25T08:56:38.991Z,99609.66
2022-12-25T08:59:06.059Z,99616.81
2022-12-25T09:01:35.663Z,99616.03
2022-12-25T09:04:02.800Z,99606.59
2022-12-25T09:06:32.831Z,99622.72
2022-12-25T09:08:59.805Z,99624.00
2022-12-25T09:11:26.779Z,99622.53
2022-12-25T09:13:53.809Z,99625.19
2022-12-25T09:16:22.360Z,99622.22
2022-12-25T09:18:49.889Z,99637.13
2022-12-25T09:21:21.502Z,99645.25
2022-12-25T09:23:48.829Z,99657.53
2022-12-25T09:26:17.955Z,99668.34
2022-12-25T09:28:50.700Z,99643.84
2022-12-25T09:31:18.849Z,99650.09
2022-12-25T09:33:46.032Z,99640.53
2022-12-25T09:36:16.061Z,99655.66
2022-12-25T09:38:43.232Z,99669.38
2022-12-25T09:41:33.028Z,99661.13
2022-12-25T09:44:21.934Z,99656.81
2022-12-25T09:46:56.696Z,99666.13
2022-12-25T09:49:37.410Z,99671.63
2022-12-25T09:52:16.661Z,99655.50
2022-12-25T09:55:19.681Z,99668.66
2022-12-25T09:57:59.514Z,99657.56
2022-12-25T10:00:36.217Z,99660.03
2022-12-25T10:03:24.570Z,99663.66
2022-12-25T10:06:04.456Z,99674.41
2022-12-25T10:08:57.140Z,99677.41
2022-12-25T10:11:58.299Z,99669.78
2022-12-25T10:14:40.337Z,99698.16
2022-12-25T10:17:25.915Z,99697.19
2022-12-25T10:23:13.006Z,99689.44
2022-12-25T10:25:40.909Z,99699.19
2022-12-25T10:28:21.409Z,99705.03
2022-12-25T10:30:51.259Z,99707.16
2022-12-25T10:33:19.242Z,99702.69
2022-12-25T10:35:46.423Z,99708.50
2022-12-25T10:38:17.467Z,99700.19
2022-12-25T10:41:19.209Z,99695.84
2022-12-25T10:44:27.061Z,99701.00
2022-12-25T10:46:56.824Z,99688.72
2022-12-25T10:49:28.592Z,99691.03
2022-12-25T10:51:55.850Z,99689.84
2022-12-25T10:54:30.222Z,99688.34
2022-12-25T10:57:02.857Z,99700.28
2022-12-25T10:59:37.641Z,99701.28
2022-12-25T11:02:16.616Z,99720.53
2022-12-25T11:04:44.271Z,99680.44
2022-12-25T11:07:33.224Z,99700.03
2022-12-25T11:10:19.111Z,99709.13
2022-12-25T11:12:47.276Z,99692.72
2022-12-25T11:15:48.509Z,99714.06
2022-12-25T11:18:28.735Z,99717.19
2022-12-25T11:21:15.197Z,99712.22
2022-12-25T11:23:48.462Z,99704.78
2022-12-25T11:26:17.499Z,99711.88
2022-12-25T11:28:46.799Z,99722.81
2022-12-25T11:31:14.062Z,99719.34
2022-12-25T11:33:57.235Z,99722.69
2022-12-25T11:36:34.869Z,99728.78
2022-12-25T11:39:20.587Z,99721.47
2022-12-25T11:41:50.760Z,99725.25
2022-12-25T11:44:46.052Z,99735.38
2022-12-25T11:47:23.650Z,99741.38
2022-12-25T11:50:00.915Z,99731.41
2022-12-25T11:52:37.012Z,99720.63
2022-12-25T11:55:31.138Z,99729.91
2022-12-25T11:58:06.774Z,99739.19
2022-12-25T12:00:36.327Z,99753.31
2022-12-25T12:03:19.381Z,99736.56
2022-12-25T12:06:16.655Z,99751.63
2022-12-25T12:08:46.848Z,99751.28
2022-12-25T12:11:23.826Z,99763.22
2022-12-25T12:14:17.069Z,99762.22
2022-12-25T12:16:44.399Z,99771.72
2022-12-25T12:19:31.693Z,99769.91
2022-12-25T12:22:04.407Z,99773.72
2022-12-25T12:24:44.634Z,99763.28
2022-12-25T12:27:18.288Z,99763.75
2022-12-25T12:29:50.951Z,99771.56
2022-12-25T12:32:33.608Z,99776.38
2022-12-25T12:35:33.746Z,99747.41
2022-12-25T12:38:05.887Z,99760.81
2022-12-25T12:40:41.741Z,99773.91
2022-12-25T12:43:38.167Z,99792.00
2022-12-25T12:46:15.627Z,99797.66
2022-12-25T12:48:45.489Z,99761.22
2022-12-25T12:51:33.984Z,99752.56
2022-12-25T12:54:17.448Z,99767.28
2022-12-25T12:56:55.604Z,99793.63
2022-12-25T12:59:27.664Z,99770.28
2022-12-25T13:02:32.815Z,99786.97
2022-12-25T13:05:06.432Z,99793.94
2022-12-25T13:08:10.000Z,99802.41
2022-12-25T13:10:44.591Z,99787.34
2022-12-25T13:13:23.378Z,99796.25
2022-12-25T13:15:52.334Z,99792.59
2022-12-25T13:18:20.828Z,99808.03
2022-12-25T13:20:57.062Z,99807.38
2022-12-25T13:23:32.817Z,99798.25
2022-12-25T13:26:14.326Z,99802.56
2022-12-25T13:28:41.857Z,99815.34
2022-12-25T13:31:25.411Z,99806.38
2022-12-25T13:34:05.968Z,99822.63
2022-12-25T13:36:38.411Z,99808.38
2022-12-25T13:39:15.047Z,99824.66
2022-12-25T13:42:04.999Z,99827.97
2022-12-25T13:44:52.295Z,99821.22
2022-12-25T13:47:40.093Z,99826.88
2022-12-25T13:50:20.182Z,99834.84
2022-12-25T13:52:51.016Z,99828.41
2022-12-25T13:55:24.563Z,99828.25
2022-12-25T13:57:57.954Z,99832.75
2022-12-25T14:00:35.428Z,99831.72
2022-12-25T14:03:08.048Z,99835.22
2022-12-25T14:05:42.714Z,99826.94
2022-12-25T14:08:22.338Z,99839.56
2022-12-25T14:10:54.363Z,99834.44
2022-12-25T14:13:26.375Z,99860.16
2022-12-25T14:15:54.265Z,99852.00
2022-12-25T14:18:23.438Z,99836.25
2022-12-25T14:21:18.203Z,99840.88
2022-12-25T14:23:48.273Z,99840.53
2022-12-25T14:26:17.661Z,99833.41
2022-12-25T14:28:53.095Z,99842.53
2022-12-25T14:31:21.860Z,99869.41
2022-12-25T14:33:51.657Z,99861.63
2022-12-25T14:36:19.599Z,99879.38
2022-12-25T14:38:58.360Z,99863.44
2022-12-25T14:41:42.803Z,99864.78
2022-12-25T14:44:38.119Z,99868.41
2022-12-25T14:47:20.744Z,99874.72
2022-12-25T14:49:48.221Z,99878.38
2022-12-25T14:52:19.820Z,99870.75
2022-12-25T14:55:01.799Z,99869.91
2022-12-25T14:57:38.296Z,99876.06
2022-12-25T15:00:24.303Z,99884.00
2022-12-25T15:02:56.839Z,99872.06
2022-12-25T15:05:38.280Z,99874.03
2022-12-25T15:08:11.716Z,99879.88
2022-12-25T15:10:59.703Z,99891.59
2022-12-25T15:17:38.334Z,99877.19
2022-12-25T15:20:18.125Z,99887.16
2022-12-25T15:23:17.879Z,99871.53
2022-12-25T15:25:32.435Z,99881.34
2022-12-25T15:27:59.451Z,99883.19
2022-12-25T15:30:26.425Z,99884.84
2022-12-25T15:32:53.436Z,99894.78
2022-12-25T15:35:22.346Z,99883.84
2022-12-25T15:37:49.360Z,99883.50
2022-12-25T15:40:16.859Z,99887.31
2022-12-25T15:42:45.308Z,99888.66
2022-12-25T15:45:21.617Z,99888.00
2022-12-25T15:47:49.374Z,99899.97
2022-12-25T15:50:18.076Z,99894.16
2022-12-25T15:52:46.616Z,99906.94
2022-12-25T15:55:14.034Z,99919.22
2022-12-25T15:57:43.934Z,99912.75
2022-12-25T16:00:19.201Z,99904.94
2022-12-25T16:02:46.780Z,99921.03
2022-12-25T16:05:14.095Z,99923.34
2022-12-25T16:07:41.218Z,99922.19
2022-12-25T16:10:16.046Z,99941.44
2022-12-25T16:12:44.344Z,99925.50
2022-12-25T16:15:13.155Z,99928.16
2022-12-25T16:17:40.537Z,99940.28
2022-12-25T16:20:08.379Z,99925.50
2022-12-25T16:22:40.069Z,99927.66
2022-12-25T16:25:13.589Z,99926.00
2022-12-25T16:27:40.844Z,99930.50
2022-12-25T16:30:08.613Z,99921.38
2022-12-25T16:32:36.654Z,99933.16
2022-12-25T16:35:04.873Z,99922.34
2022-12-25T16:37:32.007Z,99928.00
2022-12-25T16:39:58.968Z,99933.81
2022-12-25T16:42:28.780Z,99952.41
2022-12-25T16:44:55.765Z,99946.75
2022-12-25T16:47:22.970Z,99941.78
2022-12-25T16:49:49.959Z,99952.91
2022-12-25T16:52:17.112Z,99948.25
2022-12-25T16:54:46.654Z,99947.25
2022-12-25T16:57:14.915Z,99943.59
2022-12-25T16:59:42.054Z,99958.53
2022-12-25T17:02:16.697Z,99945.09
2022-12-25T17:04:45.289Z,99955.03
2022-12-25T17:07:14.059Z,99966.00
2022-12-25T17:09:44.361Z,99951.56
2022-12-25T17:12:11.660Z,99970.16
2022-12-25T17:14:38.899Z,99963.84
2022-12-25T17:17:06.253Z,99950.25
2022-12-25T17:19:33.717Z,99959.69
2022-12-25T17:22:00.966Z,99968.16
2022-12-25T17:24:29.011Z,99958.88
2022-12-25T17:26:56.104Z,99939.91
2022-12-25T17:29:24.848Z,99961.84
2022-12-25T17:31:52.648Z,99982.28
2022-12-25T17:34:20.165Z,99971.16
2022-12-25T17:36:48.123Z,99967.34
2022-12-25T17:39:15.308Z,99974.16
2022-12-25T17:41:42.463Z,99981.81
2022-12-25T17:44:10.040Z,99981.13
2022-12-25T17:46:37.977Z,99994.59
2022-12-25T17:49:05.169Z,99986.28
2022-12-25T17:51:32.219Z,99978.16
2022-12-25T17:54:05.120Z,99971.19
2022-12-25T17:56:33.302Z,99976.47
2022-12-25T17:59:06.906Z,99986.41
2022-12-25T18:01:37.849Z,99986.41
2022-12-25T18:04:10.227Z,99970.66
2022-12-25T18:06:37.817Z,99969.81
2022-12-25T18:09:06.495Z,100001.38
2022-12-25T18:11:36.787Z,99986.59
2022-12-25T18:14:08.688Z,99977.97
2022-12-25T18:16:40.671Z,99986.13
2022-12-25T18:19:11.532Z,99995.56
2022-12-25T18:24:12.859Z,99983.47
2022-12-25T18:26:40.113Z,99977.97
2022-12-25T18:29:07.630Z,99997.56
2022-12-25T18:31:35.322Z,99998.22
2022-12-25T18:34:03.731Z,100009.53
2022-12-25T18:36:31.086Z,100015.34
2022-12-25T18:38:58.985Z,100012.19
2022-12-25T18:41:28.545Z,100011.19
2022-12-25T18:43:58.596Z,100014.63
2022-12-25T18:46:27.616Z,100004.84
2022-12-25T18:49:00.188Z,100019.28
2022-12-25T18:51:34.871Z,100016.09
2022-12-25T18:54:04.347Z,100016.44
2022-12-25T18:56:31.682Z,100004.66
2022-12-25T18:59:02.496Z,100038.19
2022-12-25T19:01:29.799Z,100033.09
2022-12-25T19:04:04.984Z,100034.91
2022-12-25T19:06:58.242Z,100052.69
2022-12-25T19:09:25.552Z,100021.09
2022-12-25T19:11:55.845Z,100040.91
2022-12-25T19:14:24.118Z,100034.25
2022-12-25T19:16:52.411Z,99998.41
2022-12-25T19:19:24.950Z,100045.38
2022-12-25T19:21:57.436Z,100034.59
2022-12-25T19:24:25.440Z,100043.22
2022-12-25T19:26:55.925Z,100021.97
2022-12-25T19:29:23.404Z,100019.66
2022-12-25T19:31:51.403Z,100051.34
2022-12-25T19:34:18.603Z,100051.97
2022-12-25T19:36:45.773Z,100059.78
2022-12-25T19:39:13.174Z,100056.13
2022-12-25T19:41:40.663Z,100063.25
2022-12-25T19:44:12.775Z,100056.28
2022-12-25T19:46:41.162Z,100077.19
2022-12-25T19:49:12.962Z,100065.75
2022-12-25T19:51:43.111Z,100061.06
2022-12-25T19:54:14.380Z,100055.59
2022-12-25T19:56:43.540Z,100075.19
2022-12-25T19:59:15.115Z,100070.38
2022-12-25T20:01:44.127Z,100061.19
2022-12-25T20:04:20.330Z,100061.72
2022-12-25T20:06:47.499Z,100063.56
2022-12-25T20:09:21.287Z,100072.63
2022-12-25T20:11:49.050Z,100069.38
2022-12-25T20:14:17.357Z,100066.22
2022-12-25T20:16:45.490Z,100067.03
2022-12-25T20:19:14.156Z,100079.78
2022-12-25T20:21:41.997Z,100068.31
2022-12-25T20:24:11.414Z,100068.03
2022-12-25T20:26:39.326Z,100070.03
2022-12-25T20:29:07.418Z,100069.53
2022-12-25T20:31:35.784Z,100077.34
2022-12-25T20:34:11.878Z,100080.66
2022-12-25T20:36:38.876Z,100068.38
2022-12-25T20:39:09.901Z,100056.44
2022-12-25T20:41:40.685Z,100073.22
2022-12-25T20:44:10.389Z,100074.53
2022-12-25T20:46:39.079Z,100075.72
2022-12-25T20:49:06.618Z,100098.16
2022-12-25T20:51:34.439Z,100079.59
2022-12-25T20:54:07.371Z,100085.56
2022-12-25T20:56:34.592Z,100080.41
2022-12-25T20:59:02.059Z,100102.00
2022-12-25T21:01:31.141Z,100089.69
2022-12-25T21:03:58.451Z,100085.84
2022-12-25T21:06:26.131Z,100094.78
2022-12-25T21:08:53.407Z,100103.59
2022-12-25T21:11:21.602Z,100112.22
2022-12-25T21:13:49.945Z,100107.09
2022-12-25T21:16:21.630Z,100103.13
2022-12-25T21:18:50.483Z,100105.97
2022-12-25T21:21:17.619Z,100119.59
2022-12-25T21:23:47.664Z,100103.31
2022-12-25T21:26:31.610Z,100103.84
2022-12-25T21:29:01.509Z,100099.03
2022-12-25T21:31:29.347Z,100100.00
2022-12-25T21:33:57.814Z,100102.00
2022-12-25T21:36:34.315Z,100095.88
2022-12-25T21:39:07.516Z,100100.06
2022-12-25T21:41:37.236Z,100109.34
2022-12-25T21:44:04.547Z,100098.06
2022-12-25T21:46:31.889Z,100103.72
2022-12-25T21:48:59.829Z,100102.06
2022-12-25T21:51:52.564Z,100108.53
2022-12-25T21:54:23.127Z,100099.72
2022-12-25T21:56:50.600Z,100104.03
2022-12-25T21:59:22.187Z,100111.19
2022-12-25T22:01:51.087Z,100113.00
2022-12-25T22:04:21.210Z,100115.81
2022-12-25T22:07:07.652Z,100109.00
2022-12-25T22:09:34.882Z,100110.69
2022-12-25T22:12:24.427Z,100116.84
2022-12-25T22:15:23.608Z,100105.38
2022-12-25T22:18:10.026Z,100113.19
2022-12-25T22:20:38.563Z,100104.72
2022-12-25T22:23:05.658Z,100115.50
2022-12-25T22:25:32.675Z,100097.41
2022-12-25T22:27:59.950Z,100095.41
2022-12-25T22:30:29.228Z,100104.03
2022-12-25T22:32:56.613Z,100097.69
2022-12-25T22:35:24.111Z,100110.63
2022-12-25T22:37:51.408Z,100097.03
2022-12-25T22:40:19.930Z,100096.34
2022-12-25T22:42:49.788Z,100096.03
2022-12-25T22:45:17.146Z,100098.34
2022-12-25T22:47:44.405Z,100111.47
2022-12-25T22:50:12.987Z,100101.19
2022-12-25T22:52:40.423Z,100102.50
2022-12-25T22:55:08.802Z,100116.00
2022-12-25T22:57:36.439Z,100112.19
2022-12-25T23:00:06.022Z,100122.81
2022-12-25T23:02:35.283Z,100120.31
2022-12-25T23:05:03.482Z,100129.94
2022-12-25T23:07:30.467Z,100118.78
2022-12-25T23:09:57.383Z,100127.97
2022-12-25T23:12:42.975Z,100140.56
2022-12-25T23:15:10.131Z,100131.06
2022-12-25T23:17:55.768Z,100130.78
2022-12-25T23:20:49.162Z,100142.25
2022-12-25T23:23:36.107Z,100139.22
2022-12-25T23:26:10.281Z,100139.03
2022-12-25T23:28:57.444Z,100139.19
2022-12-25T23:31:34.756Z,100149.13
2022-12-25T23:34:02.787Z,100151.22
2022-12-25T23:36:29.992Z,100151.88
2022-12-25T23:39:01.589Z,100150.22
2022-12-25T23:41:32.991Z,100144.06
2022-12-25T23:44:00.099Z,100154.00
2022-12-25T23:46:27.168Z,100156.81
2022-12-25T23:48:54.176Z,100149.19
2022-12-25T23:51:21.380Z,100165.09
2022-12-25T23:53:48.533Z,100156.66
2022-12-25T23:56:16.810Z,100155.97
2022-12-25T23:58:49.590Z,100148.84
